sensor_id;sensor_type;location;lat;lon;timestamp;pressure;altitude;pressure_sealevel;temperature
12918;BMP180;6526;54.312;13.092;2022-10-15T00:00:37;101148.00;;;16.20
12918;BMP180;6526;54.312;13.092;2022-10-15T00:03:03;101146.00;;;16.40
12918;BMP180;6526;54.312;13.092;2022-10-15T00:05:29;101139.00;;;16.30
12918;BMP180;6526;54.312;13.092;2022-10-15T00:07:55;101142.00;;;16.20
12918;BMP180;6526;54.312;13.092;2022-10-15T00:10:22;101147.00;;;16.10
12918;BMP180;6526;54.312;13.092;2022-10-15T00:12:48;101145.00;;;16.10
12918;BMP180;6526;54.312;13.092;2022-10-15T00:15:14;101133.00;;;16.30
12918;BMP180;6526;54.312;13.092;2022-10-15T00:17:40;101136.00;;;16.40
12918;BMP180;6526;54.312;13.092;2022-10-15T00:20:08;101120.00;;;16.40
12918;BMP180;6526;54.312;13.092;2022-10-15T00:22:35;101113.00;;;16.40
12918;BMP180;6526;54.312;13.092;2022-10-15T00:25:02;101115.00;;;16.30
12918;BMP180;6526;54.312;13.092;2022-10-15T00:27:29;101117.00;;;16.30
12918;BMP180;6526;54.312;13.092;2022-10-15T00:29:55;101108.00;;;16.30
12918;BMP180;6526;54.312;13.092;2022-10-15T00:32:21;101111.00;;;16.30
12918;BMP180;6526;54.312;13.092;2022-10-15T00:34:47;101116.00;;;16.30
12918;BMP180;6526;54.312;13.092;2022-10-15T00:37:13;101111.00;;;16.30
12918;BMP180;6526;54.312;13.092;2022-10-15T00:39:39;101114.00;;;16.30
12918;BMP180;6526;54.312;13.092;2022-10-15T00:42:05;101120.00;;;16.20
12918;BMP180;6526;54.312;13.092;2022-10-15T00:47:15;101108.00;;;16.30
12918;BMP180;6526;54.312;13.092;2022-10-15T00:52:51;101102.00;;;16.20
12918;BMP180;6526;54.312;13.092;2022-10-15T00:55:39;101095.00;;;16.20
12918;BMP180;6526;54.312;13.092;2022-10-15T00:58:10;101096.00;;;16.20
12918;BMP180;6526;54.312;13.092;2022-10-15T01:00:37;101084.00;;;16.30
12918;BMP180;6526;54.312;13.092;2022-10-15T01:03:03;101083.00;;;16.20
12918;BMP180;6526;54.312;13.092;2022-10-15T01:05:30;101089.00;;;16.20
12918;BMP180;6526;54.312;13.092;2022-10-15T01:07:56;101079.00;;;16.30
12918;BMP180;6526;54.312;13.092;2022-10-15T01:10:26;101087.00;;;16.30
12918;BMP180;6526;54.312;13.092;2022-10-15T01:21:15;101057.00;;;16.40
12918;BMP180;6526;54.312;13.092;2022-10-15T01:32:26;101050.00;;;16.10
12918;BMP180;6526;54.312;13.092;2022-10-15T01:35:02;101040.00;;;16.30
12918;BMP180;6526;54.312;13.092;2022-10-15T01:37:37;101041.00;;;16.40
12918;BMP180;6526;54.312;13.092;2022-10-15T01:40:14;101033.00;;;16.30
12918;BMP180;6526;54.312;13.092;2022-10-15T01:43:14;101041.00;;;16.30
12918;BMP180;6526;54.312;13.092;2022-10-15T01:45:50;101044.00;;;16.30
12918;BMP180;6526;54.312;13.092;2022-10-15T01:48:17;101031.00;;;16.40
12918;BMP180;6526;54.312;13.092;2022-10-15T01:50:50;101035.00;;;16.30
12918;BMP180;6526;54.312;13.092;2022-10-15T01:53:20;101026.00;;;16.40
12918;BMP180;6526;54.312;13.092;2022-10-15T01:55:55;101022.00;;;16.30
12918;BMP180;6526;54.312;13.092;2022-10-15T01:58:23;101024.00;;;16.10
12918;BMP180;6526;54.312;13.092;2022-10-15T02:00:52;101028.00;;;16.20
12918;BMP180;6526;54.312;13.092;2022-10-15T02:03:19;101015.00;;;16.20
12918;BMP180;6526;54.312;13.092;2022-10-15T02:05:55;101016.00;;;16.20
12918;BMP180;6526;54.312;13.092;2022-10-15T02:08:27;101016.00;;;16.20
12918;BMP180;6526;54.312;13.092;2022-10-15T02:16:24;101001.00;;;16.30
12918;BMP180;6526;54.312;13.092;2022-10-15T02:19:08;100998.00;;;16.50
12918;BMP180;6526;54.312;13.092;2022-10-15T02:22:03;100996.00;;;16.40
12918;BMP180;6526;54.312;13.092;2022-10-15T02:27:12;100982.00;;;16.30
12918;BMP180;6526;54.312;13.092;2022-10-15T02:29:41;100987.00;;;16.30
12918;BMP180;6526;54.312;13.092;2022-10-15T02:32:09;100990.00;;;16.20
12918;BMP180;6526;54.312;13.092;2022-10-15T02:34:36;100975.00;;;16.10
12918;BMP180;6526;54.312;13.092;2022-10-15T02:37:04;100984.00;;;16.20
12918;BMP180;6526;54.312;13.092;2022-10-15T02:39:31;100978.00;;;16.20
12918;BMP180;6526;54.312;13.092;2022-10-15T02:41:58;100981.00;;;16.30
12918;BMP180;6526;54.312;13.092;2022-10-15T02:44:24;100985.00;;;16.30
12918;BMP180;6526;54.312;13.092;2022-10-15T02:46:50;100985.00;;;16.30
12918;BMP180;6526;54.312;13.092;2022-10-15T02:49:16;100980.00;;;16.40
12918;BMP180;6526;54.312;13.092;2022-10-15T02:51:42;100985.00;;;16.30
12918;BMP180;6526;54.312;13.092;2022-10-15T02:54:08;100979.00;;;16.30
12918;BMP180;6526;54.312;13.092;2022-10-15T02:56:35;100982.00;;;16.20
12918;BMP180;6526;54.312;13.092;2022-10-15T02:59:04;100982.00;;;16.20
12918;BMP180;6526;54.312;13.092;2022-10-15T03:01:31;100973.00;;;16.20
12918;BMP180;6526;54.312;13.092;2022-10-15T03:03:57;100984.00;;;16.30
12918;BMP180;6526;54.312;13.092;2022-10-15T03:06:24;100975.00;;;16.20
12918;BMP180;6526;54.312;13.092;2022-10-15T03:08:50;100971.00;;;16.30
12918;BMP180;6526;54.312;13.092;2022-10-15T03:11:16;100973.00;;;16.20
12918;BMP180;6526;54.312;13.092;2022-10-15T03:13:42;100975.00;;;16.10
12918;BMP180;6526;54.312;13.092;2022-10-15T03:16:09;100965.00;;;16.20
12918;BMP180;6526;54.312;13.092;2022-10-15T03:18:36;100966.00;;;16.30
12918;BMP180;6526;54.312;13.092;2022-10-15T03:21:02;100962.00;;;16.20
12918;BMP180;6526;54.312;13.092;2022-10-15T03:23:29;100954.00;;;16.20
12918;BMP180;6526;54.312;13.092;2022-10-15T03:25:55;100957.00;;;16.20
12918;BMP180;6526;54.312;13.092;2022-10-15T03:28:21;100947.00;;;16.10
12918;BMP180;6526;54.312;13.092;2022-10-15T03:30:48;100950.00;;;16.10
12918;BMP180;6526;54.312;13.092;2022-10-15T03:33:14;100955.00;;;16.00
12918;BMP180;6526;54.312;13.092;2022-10-15T03:35:40;100946.00;;;16.00
12918;BMP180;6526;54.312;13.092;2022-10-15T03:38:06;100942.00;;;16.10
12918;BMP180;6526;54.312;13.092;2022-10-15T03:40:33;100941.00;;;16.00
12918;BMP180;6526;54.312;13.092;2022-10-15T03:42:59;100936.00;;;16.10
12918;BMP180;6526;54.312;13.092;2022-10-15T03:45:26;100936.00;;;16.10
12918;BMP180;6526;54.312;13.092;2022-10-15T03:47:52;100938.00;;;15.90
12918;BMP180;6526;54.312;13.092;2022-10-15T03:50:18;100937.00;;;16.00
12918;BMP180;6526;54.312;13.092;2022-10-15T03:52:45;100943.00;;;15.90
12918;BMP180;6526;54.312;13.092;2022-10-15T03:55:11;100950.00;;;15.90
12918;BMP180;6526;54.312;13.092;2022-10-15T03:57:38;100933.00;;;16.00
12918;BMP180;6526;54.312;13.092;2022-10-15T04:00:06;100943.00;;;16.20
12918;BMP180;6526;54.312;13.092;2022-10-15T04:02:32;100930.00;;;16.10
12918;BMP180;6526;54.312;13.092;2022-10-15T04:04:58;100943.00;;;16.00
12918;BMP180;6526;54.312;13.092;2022-10-15T04:07:25;100938.00;;;16.10
12918;BMP180;6526;54.312;13.092;2022-10-15T04:09:52;100933.00;;;16.10
12918;BMP180;6526;54.312;13.092;2022-10-15T04:12:18;100938.00;;;16.10
12918;BMP180;6526;54.312;13.092;2022-10-15T04:14:44;100937.00;;;16.10
12918;BMP180;6526;54.312;13.092;2022-10-15T04:17:11;100937.00;;;16.00
12918;BMP180;6526;54.312;13.092;2022-10-15T04:19:37;100940.00;;;16.00
12918;BMP180;6526;54.312;13.092;2022-10-15T04:22:03;100939.00;;;15.90
12918;BMP180;6526;54.312;13.092;2022-10-15T04:24:29;100944.00;;;15.90
12918;BMP180;6526;54.312;13.092;2022-10-15T04:26:55;100942.00;;;16.00
12918;BMP180;6526;54.312;13.092;2022-10-15T04:29:21;100941.00;;;15.90
12918;BMP180;6526;54.312;13.092;2022-10-15T04:31:47;100946.00;;;16.00
12918;BMP180;6526;54.312;13.092;2022-10-15T04:34:13;100940.00;;;15.80
12918;BMP180;6526;54.312;13.092;2022-10-15T04:36:39;100942.00;;;15.80
12918;BMP180;6526;54.312;13.092;2022-10-15T04:39:06;100934.00;;;15.90
12918;BMP180;6526;54.312;13.092;2022-10-15T04:41:32;100941.00;;;15.90
12918;BMP180;6526;54.312;13.092;2022-10-15T04:43:58;100941.00;;;15.90
12918;BMP180;6526;54.312;13.092;2022-10-15T04:46:24;100946.00;;;15.90
12918;BMP180;6526;54.312;13.092;2022-10-15T04:48:52;100951.00;;;16.00
12918;BMP180;6526;54.312;13.092;2022-10-15T04:51:22;100941.00;;;16.10
12918;BMP180;6526;54.312;13.092;2022-10-15T04:53:48;100955.00;;;16.10
12918;BMP180;6526;54.312;13.092;2022-10-15T04:56:17;100944.00;;;16.10
12918;BMP180;6526;54.312;13.092;2022-10-15T04:58:45;100948.00;;;16.00
12918;BMP180;6526;54.312;13.092;2022-10-15T05:01:14;100944.00;;;16.00
12918;BMP180;6526;54.312;13.092;2022-10-15T05:03:43;100942.00;;;16.00
12918;BMP180;6526;54.312;13.092;2022-10-15T05:06:12;100953.00;;;16.10
12918;BMP180;6526;54.312;13.092;2022-10-15T05:08:39;100949.00;;;16.00
12918;BMP180;6526;54.312;13.092;2022-10-15T05:11:15;100948.00;;;16.00
12918;BMP180;6526;54.312;13.092;2022-10-15T05:13:42;100940.00;;;16.00
12918;BMP180;6526;54.312;13.092;2022-10-15T05:16:20;100935.00;;;16.00
12918;BMP180;6526;54.312;13.092;2022-10-15T05:18:49;100938.00;;;16.00
12918;BMP180;6526;54.312;13.092;2022-10-15T05:21:17;100942.00;;;16.00
12918;BMP180;6526;54.312;13.092;2022-10-15T05:23:43;100939.00;;;16.00
12918;BMP180;6526;54.312;13.092;2022-10-15T05:26:13;100939.00;;;16.10
12918;BMP180;6526;54.312;13.092;2022-10-15T05:28:39;100936.00;;;16.00
12918;BMP180;6526;54.312;13.092;2022-10-15T05:31:08;100940.00;;;16.10
12918;BMP180;6526;54.312;13.092;2022-10-15T05:33:35;100940.00;;;16.10
12918;BMP180;6526;54.312;13.092;2022-10-15T05:38:34;100946.00;;;16.20
12918;BMP180;6526;54.312;13.092;2022-10-15T05:41:00;100939.00;;;16.10
12918;BMP180;6526;54.312;13.092;2022-10-15T05:43:26;100945.00;;;16.10
12918;BMP180;6526;54.312;13.092;2022-10-15T05:45:56;100948.00;;;16.10
12918;BMP180;6526;54.312;13.092;2022-10-15T05:48:22;100940.00;;;16.00
12918;BMP180;6526;54.312;13.092;2022-10-15T05:50:48;100946.00;;;16.10
12918;BMP180;6526;54.312;13.092;2022-10-15T05:53:14;100958.00;;;16.10
12918;BMP180;6526;54.312;13.092;2022-10-15T05:55:40;100949.00;;;16.20
12918;BMP180;6526;54.312;13.092;2022-10-15T05:58:06;100950.00;;;16.10
12918;BMP180;6526;54.312;13.092;2022-10-15T06:00:33;100964.00;;;16.30
12918;BMP180;6526;54.312;13.092;2022-10-15T06:02:59;100963.00;;;16.40
12918;BMP180;6526;54.312;13.092;2022-10-15T06:05:25;100956.00;;;16.10
12918;BMP180;6526;54.312;13.092;2022-10-15T06:07:51;100953.00;;;16.20
12918;BMP180;6526;54.312;13.092;2022-10-15T06:10:17;100971.00;;;16.30
12918;BMP180;6526;54.312;13.092;2022-10-15T06:12:48;100955.00;;;16.30
12918;BMP180;6526;54.312;13.092;2022-10-15T06:15:16;100958.00;;;16.30
12918;BMP180;6526;54.312;13.092;2022-10-15T06:17:42;100962.00;;;16.30
12918;BMP180;6526;54.312;13.092;2022-10-15T06:20:08;100965.00;;;16.30
12918;BMP180;6526;54.312;13.092;2022-10-15T06:22:34;100965.00;;;16.40
12918;BMP180;6526;54.312;13.092;2022-10-15T06:25:00;100973.00;;;16.30
12918;BMP180;6526;54.312;13.092;2022-10-15T06:27:26;100969.00;;;16.40
12918;BMP180;6526;54.312;13.092;2022-10-15T06:29:52;100981.00;;;16.40
12918;BMP180;6526;54.312;13.092;2022-10-15T06:32:18;100980.00;;;16.50
12918;BMP180;6526;54.312;13.092;2022-10-15T06:34:44;100972.00;;;16.60
12918;BMP180;6526;54.312;13.092;2022-10-15T06:37:10;100981.00;;;16.50
12918;BMP180;6526;54.312;13.092;2022-10-15T06:39:36;100975.00;;;16.40
12918;BMP180;6526;54.312;13.092;2022-10-15T06:42:03;100973.00;;;16.50
12918;BMP180;6526;54.312;13.092;2022-10-15T06:44:28;100981.00;;;16.60
12918;BMP180;6526;54.312;13.092;2022-10-15T06:46:54;100977.00;;;16.80
12918;BMP180;6526;54.312;13.092;2022-10-15T06:49:20;100978.00;;;16.70
12918;BMP180;6526;54.312;13.092;2022-10-15T06:51:46;100984.00;;;16.80
12918;BMP180;6526;54.312;13.092;2022-10-15T06:54:13;100993.00;;;16.80
12918;BMP180;6526;54.312;13.092;2022-10-15T06:56:39;100991.00;;;16.80
12918;BMP180;6526;54.312;13.092;2022-10-15T06:59:05;100988.00;;;16.70
12918;BMP180;6526;54.312;13.092;2022-10-15T07:01:31;100996.00;;;16.80
12918;BMP180;6526;54.312;13.092;2022-10-15T07:03:57;100989.00;;;16.90
12918;BMP180;6526;54.312;13.092;2022-10-15T07:06:23;100989.00;;;16.90
12918;BMP180;6526;54.312;13.092;2022-10-15T07:08:50;100991.00;;;16.80
12918;BMP180;6526;54.312;13.092;2022-10-15T07:11:16;101002.00;;;16.80
12918;BMP180;6526;54.312;13.092;2022-10-15T07:13:43;101002.00;;;16.80
12918;BMP180;6526;54.312;13.092;2022-10-15T07:16:10;100998.00;;;16.90
12918;BMP180;6526;54.312;13.092;2022-10-15T07:18:37;100993.00;;;16.90
12918;BMP180;6526;54.312;13.092;2022-10-15T07:21:05;101000.00;;;16.90
12918;BMP180;6526;54.312;13.092;2022-10-15T07:23:32;100992.00;;;16.90
12918;BMP180;6526;54.312;13.092;2022-10-15T07:25:59;100989.00;;;17.10
12918;BMP180;6526;54.312;13.092;2022-10-15T07:28:26;101009.00;;;17.00
12918;BMP180;6526;54.312;13.092;2022-10-15T07:30:52;101004.00;;;17.10
12918;BMP180;6526;54.312;13.092;2022-10-15T07:33:18;101003.00;;;17.10
12918;BMP180;6526;54.312;13.092;2022-10-15T07:35:45;101015.00;;;17.00
12918;BMP180;6526;54.312;13.092;2022-10-15T07:38:11;101010.00;;;17.00
12918;BMP180;6526;54.312;13.092;2022-10-15T07:40:37;101023.00;;;16.90
12918;BMP180;6526;54.312;13.092;2022-10-15T07:43:03;101009.00;;;17.10
12918;BMP180;6526;54.312;13.092;2022-10-15T07:45:29;101030.00;;;17.00
12918;BMP180;6526;54.312;13.092;2022-10-15T07:47:55;101026.00;;;17.00
12918;BMP180;6526;54.312;13.092;2022-10-15T07:50:22;101022.00;;;17.00
12918;BMP180;6526;54.312;13.092;2022-10-15T07:52:48;101031.00;;;17.00
12918;BMP180;6526;54.312;13.092;2022-10-15T07:55:14;101043.00;;;17.10
12918;BMP180;6526;54.312;13.092;2022-10-15T07:57:40;101032.00;;;17.20
12918;BMP180;6526;54.312;13.092;2022-10-15T08:00:06;101035.00;;;17.20
12918;BMP180;6526;54.312;13.092;2022-10-15T08:02:33;101035.00;;;17.20
12918;BMP180;6526;54.312;13.092;2022-10-15T08:04:59;101032.00;;;17.30
12918;BMP180;6526;54.312;13.092;2022-10-15T08:07:25;101035.00;;;17.20
12918;BMP180;6526;54.312;13.092;2022-10-15T08:09:51;101031.00;;;17.30
12918;BMP180;6526;54.312;13.092;2022-10-15T08:12:17;101039.00;;;17.40
12918;BMP180;6526;54.312;13.092;2022-10-15T08:14:43;101041.00;;;17.40
12918;BMP180;6526;54.312;13.092;2022-10-15T08:17:09;101044.00;;;17.40
12918;BMP180;6526;54.312;13.092;2022-10-15T08:19:35;101040.00;;;17.40
12918;BMP180;6526;54.312;13.092;2022-10-15T08:22:01;101041.00;;;17.50
12918;BMP180;6526;54.312;13.092;2022-10-15T08:24:27;101036.00;;;17.60
12918;BMP180;6526;54.312;13.092;2022-10-15T08:26:56;101043.00;;;17.70
12918;BMP180;6526;54.312;13.092;2022-10-15T08:29:23;101033.00;;;17.70
12918;BMP180;6526;54.312;13.092;2022-10-15T08:31:49;101046.00;;;17.60
12918;BMP180;6526;54.312;13.092;2022-10-15T08:34:15;101043.00;;;17.60
12918;BMP180;6526;54.312;13.092;2022-10-15T08:36:42;101045.00;;;17.70
12918;BMP180;6526;54.312;13.092;2022-10-15T08:39:08;101052.00;;;17.80
12918;BMP180;6526;54.312;13.092;2022-10-15T08:41:44;101052.00;;;17.80
12918;BMP180;6526;54.312;13.092;2022-10-15T08:44:27;101050.00;;;17.90
12918;BMP180;6526;54.312;13.092;2022-10-15T08:47:14;101051.00;;;17.90
12918;BMP180;6526;54.312;13.092;2022-10-15T08:49:53;101043.00;;;17.90
12918;BMP180;6526;54.312;13.092;2022-10-15T08:52:43;101045.00;;;18.00
12918;BMP180;6526;54.312;13.092;2022-10-15T08:55:21;101047.00;;;18.10
12918;BMP180;6526;54.312;13.092;2022-10-15T08:58:05;101049.00;;;18.00
12918;BMP180;6526;54.312;13.092;2022-10-15T09:00:43;101046.00;;;18.20
12918;BMP180;6526;54.312;13.092;2022-10-15T09:14:34;101056.00;;;18.60
12918;BMP180;6526;54.312;13.092;2022-10-15T09:17:21;101053.00;;;18.60
12918;BMP180;6526;54.312;13.092;2022-10-15T09:19:52;101053.00;;;18.60
12918;BMP180;6526;54.312;13.092;2022-10-15T09:22:27;101058.00;;;18.40
12918;BMP180;6526;54.312;13.092;2022-10-15T09:24:53;101070.00;;;18.50
12918;BMP180;6526;54.312;13.092;2022-10-15T09:33:02;101075.00;;;18.40
12918;BMP180;6526;54.312;13.092;2022-10-15T09:35:49;101074.00;;;18.50
12918;BMP180;6526;54.312;13.092;2022-10-15T09:38:39;101070.00;;;18.70
12918;BMP180;6526;54.312;13.092;2022-10-15T09:44:04;101077.00;;;18.60
12918;BMP180;6526;54.312;13.092;2022-10-15T09:46:46;101073.00;;;18.70
12918;BMP180;6526;54.312;13.092;2022-10-15T09:49:15;101082.00;;;18.70
12918;BMP180;6526;54.312;13.092;2022-10-15T09:56:49;101086.00;;;18.60
12918;BMP180;6526;54.312;13.092;2022-10-15T09:59:18;101081.00;;;18.70
12918;BMP180;6526;54.312;13.092;2022-10-15T10:02:16;101071.00;;;18.60
12918;BMP180;6526;54.312;13.092;2022-10-15T10:04:42;101072.00;;;18.70
12918;BMP180;6526;54.312;13.092;2022-10-15T10:07:34;101076.00;;;19.00
12918;BMP180;6526;54.312;13.092;2022-10-15T10:10:19;101081.00;;;19.40
12918;BMP180;6526;54.312;13.092;2022-10-15T10:12:46;101088.00;;;19.60
12918;BMP180;6526;54.312;13.092;2022-10-15T10:17:54;101077.00;;;20.00
12918;BMP180;6526;54.312;13.092;2022-10-15T10:20:22;101085.00;;;20.00
12918;BMP180;6526;54.312;13.092;2022-10-15T10:25:39;101105.00;;;20.00
12918;BMP180;6526;54.312;13.092;2022-10-15T10:33:28;101088.00;;;20.10
12918;BMP180;6526;54.312;13.092;2022-10-15T10:35:55;101096.00;;;20.10
12918;BMP180;6526;54.312;13.092;2022-10-15T10:38:22;101100.00;;;20.10
12918;BMP180;6526;54.312;13.092;2022-10-15T10:40:51;101088.00;;;20.10
12918;BMP180;6526;54.312;13.092;2022-10-15T10:43:27;101103.00;;;19.90
12918;BMP180;6526;54.312;13.092;2022-10-15T10:45:59;101101.00;;;19.90
12918;BMP180;6526;54.312;13.092;2022-10-15T10:51:16;101113.00;;;19.70
12918;BMP180;6526;54.312;13.092;2022-10-15T10:54:01;101107.00;;;19.50
12918;BMP180;6526;54.312;13.092;2022-10-15T10:56:33;101095.00;;;19.50
12918;BMP180;6526;54.312;13.092;2022-10-15T10:59:49;101100.00;;;19.50
12918;BMP180;6526;54.312;13.092;2022-10-15T11:01:49;101093.00;;;19.40
12918;BMP180;6526;54.312;13.092;2022-10-15T11:04:33;101100.00;;;19.50
12918;BMP180;6526;54.312;13.092;2022-10-15T11:07:36;101103.00;;;19.60
12918;BMP180;6526;54.312;13.092;2022-10-15T11:10:18;101100.00;;;19.70
12918;BMP180;6526;54.312;13.092;2022-10-15T11:13:01;101102.00;;;19.60
12918;BMP180;6526;54.312;13.092;2022-10-15T11:16:10;101094.00;;;19.60
12918;BMP180;6526;54.312;13.092;2022-10-15T11:24:15;101099.00;;;19.70
12918;BMP180;6526;54.312;13.092;2022-10-15T11:26:47;101096.00;;;19.70
12918;BMP180;6526;54.312;13.092;2022-10-15T11:30:00;101101.00;;;19.80
12918;BMP180;6526;54.312;13.092;2022-10-15T11:35:48;101100.00;;;20.20
12918;BMP180;6526;54.312;13.092;2022-10-15T11:38:44;101093.00;;;20.30
12918;BMP180;6526;54.312;13.092;2022-10-15T11:41:38;101094.00;;;20.30
12918;BMP180;6526;54.312;13.092;2022-10-15T11:47:06;101102.00;;;20.30
12918;BMP180;6526;54.312;13.092;2022-10-15T11:55:41;101091.00;;;20.10
12918;BMP180;6526;54.312;13.092;2022-10-15T11:58:15;101094.00;;;20.10
12918;BMP180;6526;54.312;13.092;2022-10-15T12:00:48;101083.00;;;20.20
12918;BMP180;6526;54.312;13.092;2022-10-15T12:03:25;101094.00;;;20.40
12918;BMP180;6526;54.312;13.092;2022-10-15T12:06:04;101089.00;;;20.50
12918;BMP180;6526;54.312;13.092;2022-10-15T12:08:34;101090.00;;;20.70
12918;BMP180;6526;54.312;13.092;2022-10-15T12:14:47;101085.00;;;20.80
12918;BMP180;6526;54.312;13.092;2022-10-15T12:17:10;101083.00;;;21.00
12918;BMP180;6526;54.312;13.092;2022-10-15T12:19:47;101086.00;;;21.30
12918;BMP180;6526;54.312;13.092;2022-10-15T12:22:37;101085.00;;;21.20
12918;BMP180;6526;54.312;13.092;2022-10-15T12:25:04;101084.00;;;21.10
12918;BMP180;6526;54.312;13.092;2022-10-15T12:27:33;101077.00;;;21.10
12918;BMP180;6526;54.312;13.092;2022-10-15T12:32:40;101090.00;;;21.10
12918;BMP180;6526;54.312;13.092;2022-10-15T12:35:23;101087.00;;;21.30
12918;BMP180;6526;54.312;13.092;2022-10-15T12:37:51;101090.00;;;21.50
12918;BMP180;6526;54.312;13.092;2022-10-15T12:43:02;101080.00;;;21.40
12918;BMP180;6526;54.312;13.092;2022-10-15T12:45:38;101066.00;;;21.40
12918;BMP180;6526;54.312;13.092;2022-10-15T12:50:33;101079.00;;;21.50
12918;BMP180;6526;54.312;13.092;2022-10-15T12:56:19;101084.00;;;21.50
12918;BMP180;6526;54.312;13.092;2022-10-15T12:58:51;101087.00;;;21.40
12918;BMP180;6526;54.312;13.092;2022-10-15T13:06:35;101082.00;;;21.20
12918;BMP180;6526;54.312;13.092;2022-10-15T13:11:45;101076.00;;;21.30
12918;BMP180;6526;54.312;13.092;2022-10-15T13:16:46;101069.00;;;21.60
12918;BMP180;6526;54.312;13.092;2022-10-15T13:19:24;101068.00;;;21.30
12918;BMP180;6526;54.312;13.092;2022-10-15T13:21:53;101067.00;;;21.30
12918;BMP180;6526;54.312;13.092;2022-10-15T13:24:22;101073.00;;;21.20
12918;BMP180;6526;54.312;13.092;2022-10-15T13:26:49;101076.00;;;21.20
12918;BMP180;6526;54.312;13.092;2022-10-15T13:29:17;101080.00;;;21.20
12918;BMP180;6526;54.312;13.092;2022-10-15T13:31:44;101075.00;;;21.30
12918;BMP180;6526;54.312;13.092;2022-10-15T13:34:29;101067.00;;;21.30
12918;BMP180;6526;54.312;13.092;2022-10-15T13:36:58;101068.00;;;21.30
12918;BMP180;6526;54.312;13.092;2022-10-15T13:44:32;101063.00;;;21.40
12918;BMP180;6526;54.312;13.092;2022-10-15T13:46:59;101064.00;;;21.40
12918;BMP180;6526;54.312;13.092;2022-10-15T13:49:25;101068.00;;;21.40
12918;BMP180;6526;54.312;13.092;2022-10-15T13:51:52;101060.00;;;21.40
12918;BMP180;6526;54.312;13.092;2022-10-15T13:54:24;101071.00;;;21.40
12918;BMP180;6526;54.312;13.092;2022-10-15T13:56:55;101062.00;;;21.30
12918;BMP180;6526;54.312;13.092;2022-10-15T13:59:25;101072.00;;;21.10
12918;BMP180;6526;54.312;13.092;2022-10-15T14:01:55;101070.00;;;21.20
12918;BMP180;6526;54.312;13.092;2022-10-15T14:04:27;101077.00;;;21.20
12918;BMP180;6526;54.312;13.092;2022-10-15T14:07:19;101071.00;;;21.20
12918;BMP180;6526;54.312;13.092;2022-10-15T14:09:46;101074.00;;;21.20
12918;BMP180;6526;54.312;13.092;2022-10-15T14:12:13;101079.00;;;21.10
12918;BMP180;6526;54.312;13.092;2022-10-15T14:14:42;101075.00;;;21.10
12918;BMP180;6526;54.312;13.092;2022-10-15T14:19:46;101071.00;;;21.00
12918;BMP180;6526;54.312;13.092;2022-10-15T14:22:21;101070.00;;;21.00
12918;BMP180;6526;54.312;13.092;2022-10-15T14:24:51;101073.00;;;20.90
12918;BMP180;6526;54.312;13.092;2022-10-15T14:27:21;101087.00;;;20.80
12918;BMP180;6526;54.312;13.092;2022-10-15T14:29:49;101079.00;;;20.70
12918;BMP180;6526;54.312;13.092;2022-10-15T14:32:28;101082.00;;;20.80
12918;BMP180;6526;54.312;13.092;2022-10-15T14:42:42;101094.00;;;20.60
12918;BMP180;6526;54.312;13.092;2022-10-15T14:45:19;101089.00;;;20.50
12918;BMP180;6526;54.312;13.092;2022-10-15T14:47:57;101085.00;;;20.40
12918;BMP180;6526;54.312;13.092;2022-10-15T14:50:30;101090.00;;;20.30
12918;BMP180;6526;54.312;13.092;2022-10-15T14:52:57;101082.00;;;20.30
12918;BMP180;6526;54.312;13.092;2022-10-15T14:57:49;101082.00;;;20.30
12918;BMP180;6526;54.312;13.092;2022-10-15T15:00:34;101084.00;;;20.10
12918;BMP180;6526;54.312;13.092;2022-10-15T15:03:05;101087.00;;;19.90
12918;BMP180;6526;54.312;13.092;2022-10-15T15:05:44;101086.00;;;19.90
12918;BMP180;6526;54.312;13.092;2022-10-15T15:08:10;101082.00;;;20.00
12918;BMP180;6526;54.312;13.092;2022-10-15T15:10:36;101083.00;;;20.00
12918;BMP180;6526;54.312;13.092;2022-10-15T15:13:02;101077.00;;;20.10
12918;BMP180;6526;54.312;13.092;2022-10-15T15:15:28;101079.00;;;20.10
12918;BMP180;6526;54.312;13.092;2022-10-15T15:17:55;101082.00;;;19.90
12918;BMP180;6526;54.312;13.092;2022-10-15T15:20:21;101092.00;;;19.90
12918;BMP180;6526;54.312;13.092;2022-10-15T15:22:48;101103.00;;;19.90
12918;BMP180;6526;54.312;13.092;2022-10-15T15:25:23;101108.00;;;19.80
12918;BMP180;6526;54.312;13.092;2022-10-15T15:27:51;101103.00;;;19.80
12918;BMP180;6526;54.312;13.092;2022-10-15T15:30:19;101094.00;;;19.80
12918;BMP180;6526;54.312;13.092;2022-10-15T15:32:46;101109.00;;;19.70
12918;BMP180;6526;54.312;13.092;2022-10-15T15:35:25;101109.00;;;19.60
12918;BMP180;6526;54.312;13.092;2022-10-15T15:37:53;101109.00;;;19.50
12918;BMP180;6526;54.312;13.092;2022-10-15T15:40:19;101101.00;;;19.40
12918;BMP180;6526;54.312;13.092;2022-10-15T15:42:46;101105.00;;;19.30
12918;BMP180;6526;54.312;13.092;2022-10-15T15:45:24;101104.00;;;19.30
12918;BMP180;6526;54.312;13.092;2022-10-15T15:47:51;101107.00;;;19.40
12918;BMP180;6526;54.312;13.092;2022-10-15T15:50:19;101108.00;;;19.30
12918;BMP180;6526;54.312;13.092;2022-10-15T15:52:45;101105.00;;;19.20
12918;BMP180;6526;54.312;13.092;2022-10-15T15:55:12;101106.00;;;19.20
12918;BMP180;6526;54.312;13.092;2022-10-15T15:57:38;101113.00;;;19.20
12918;BMP180;6526;54.312;13.092;2022-10-15T16:00:06;101105.00;;;19.10
12918;BMP180;6526;54.312;13.092;2022-10-15T16:02:32;101111.00;;;19.10
12918;BMP180;6526;54.312;13.092;2022-10-15T16:04:58;101105.00;;;19.20
12918;BMP180;6526;54.312;13.092;2022-10-15T16:07:26;101110.00;;;19.20
12918;BMP180;6526;54.312;13.092;2022-10-15T16:09:53;101108.00;;;19.20
12918;BMP180;6526;54.312;13.092;2022-10-15T16:12:19;101114.00;;;19.10
12918;BMP180;6526;54.312;13.092;2022-10-15T16:14:45;101122.00;;;19.10
12918;BMP180;6526;54.312;13.092;2022-10-15T16:17:11;101127.00;;;19.10
12918;BMP180;6526;54.312;13.092;2022-10-15T16:19:37;101112.00;;;19.00
12918;BMP180;6526;54.312;13.092;2022-10-15T16:22:03;101114.00;;;19.00
12918;BMP180;6526;54.312;13.092;2022-10-15T16:24:30;101111.00;;;19.00